Time;durP1;ratioP1;P1;durP2;ratioP2;P2;SDS_P1;SDS_P2;PMS_P1;PMS_P2;Temp;Humidity;BMP_temperature;BMP_pressure;BME280_temperature;BME280_humidity;BME280_pressure;Samples;Min_cycle;Max_cycle;Signal;HPM_P1;HPM_P2
2021/11/16 00:18:07;;;;;;;36.03;25.23;;;;;;;6.18;85.86;101818.53;4986583;28;20085;-67
2021/11/16 00:20:38;;;;;;;37.97;26.08;;;;;;;6.18;86.09;101818.53;5027584;28;20135;-67
2021/11/16 00:23:04;;;;;;;34.90;24.50;;;;;;;6.22;85.69;101820.00;5027779;28;20128;-67
2021/11/16 00:25:35;;;;;;;34.42;23.75;;;;;;;6.25;85.07;101821.56;5027758;28;20050;-67
2021/11/16 00:28:03;;;;;;;34.60;24.27;;;;;;;6.17;86.00;101818.63;5024933;28;20049;-68
2021/11/16 00:30:30;;;;;;;36.80;25.13;;;;;;;6.11;85.63;101822.50;5027211;28;20072;-68
2021/11/16 00:32:58;;;;;;;39.63;26.52;;;;;;;6.24;85.82;101823.34;5027702;28;20128;-68
2021/11/16 00:35:25;;;;;;;39.65;25.27;;;;;;;6.18;86.22;101821.13;5027775;28;20088;-68
2021/11/16 00:37:51;;;;;;;39.80;27.20;;;;;;;6.12;86.14;101820.72;5027388;28;20457;-68
2021/11/16 00:40:20;;;;;;;36.72;25.17;;;;;;;6.07;85.58;101815.81;5026991;28;20060;-67
2021/11/16 00:42:49;;;;;;;37.17;24.90;;;;;;;6.03;86.30;101822.13;5008101;28;20058;-67
2021/11/16 00:45:18;;;;;;;38.45;26.10;;;;;;;6.04;85.82;101815.19;5007910;28;20082;-66
2021/11/16 00:47:45;;;;;;;42.65;26.98;;;;;;;6.05;86.30;101822.03;5007571;28;20112;-67
2021/11/16 00:50:15;;;;;;;35.83;25.52;;;;;;;6.20;85.89;101819.28;5007924;28;20633;-67
2021/11/16 00:52:42;;;;;;;36.05;25.08;;;;;;;6.18;85.67;101817.69;5008198;28;20207;-67
2021/11/16 00:55:10;;;;;;;36.17;24.27;;;;;;;6.12;85.71;101813.75;5006704;28;20086;-67
2021/11/16 00:57:36;;;;;;;37.92;25.42;;;;;;;6.13;85.51;101812.84;5007591;28;20062;-67
2021/11/16 01:00:04;;;;;;;38.60;25.33;;;;;;;6.09;86.01;101811.34;5007372;28;20042;-67
2021/11/16 01:02:32;;;;;;;39.03;25.55;;;;;;;6.10;86.13;101804.41;5007570;28;20096;-67
2021/11/16 01:04:59;;;;;;;36.80;24.63;;;;;;;6.03;85.94;101808.31;5007879;28;20458;-67
2021/11/16 01:07:25;;;;;;;35.90;24.40;;;;;;;6.17;85.51;101803.88;5007395;28;20129;-67
2021/11/16 01:09:52;;;;;;;39.30;25.80;;;;;;;6.15;86.55;101810.09;5006629;28;20137;-67
2021/11/16 01:12:21;;;;;;;38.60;24.92;;;;;;;6.06;86.86;101814.16;4995041;28;20479;-67
2021/11/16 01:14:47;;;;;;;36.20;24.08;;;;;;;6.02;87.53;101809.25;4994011;28;20089;-67
2021/11/16 01:17:14;;;;;;;39.88;24.35;;;;;;;6.01;87.85;101810.19;4994423;28;20105;-67
2021/11/16 01:19:43;;;;;;;38.35;25.80;;;;;;;5.94;88.19;101813.16;4994745;28;20066;-67
2021/11/16 01:22:10;;;;;;;37.85;24.33;;;;;;;5.94;88.07;101800.16;4994954;28;20145;-67
2021/11/16 01:24:37;;;;;;;37.13;24.90;;;;;;;5.94;88.17;101801.94;4994444;28;20115;-67
2021/11/16 01:27:07;;;;;;;37.17;25.00;;;;;;;6.02;88.13;101802.28;4994042;28;20443;-67
2021/11/16 01:29:35;;;;;;;36.13;24.63;;;;;;;5.96;87.16;101795.72;4993874;28;20116;-67
2021/11/16 01:42:50;;;;;;;36.50;24.00;;;;;;;5.98;87.50;101795.63;4990749;28;20132;-68
2021/11/16 01:45:17;;;;;;;34.55;23.65;;;;;;;5.95;87.53;101793.22;4992254;28;20089;-67
2021/11/16 01:47:44;;;;;;;37.47;23.83;;;;;;;6.02;88.17;101791.06;4993523;28;20098;-67
2021/11/16 01:50:12;;;;;;;36.30;24.73;;;;;;;6.11;88.18;101791.31;4993479;28;20081;-67
2021/11/16 01:52:39;;;;;;;36.00;23.95;;;;;;;5.98;88.02;101788.66;4993990;28;20133;-67
2021/11/16 01:55:09;;;;;;;34.83;23.35;;;;;;;5.98;87.64;101791.25;4993735;28;20084;-67
2021/11/16 01:57:36;;;;;;;32.45;23.75;;;;;;;6.02;88.17;101784.09;4993978;28;20157;-67
2021/11/16 02:00:08;;;;;;;37.50;24.92;;;;;;;5.97;87.90;101783.56;4992712;28;20473;-67
2021/11/16 02:02:34;;;;;;;37.95;24.88;;;;;;;5.94;87.42;101779.38;4992012;28;20564;-68
2021/11/16 02:05:01;;;;;;;35.05;22.52;;;;;;;5.95;86.89;101785.41;4993318;28;20133;-67
2021/11/16 02:07:28;;;;;;;31.50;21.63;;;;;;;5.90;86.73;101782.28;4993362;28;20498;-67
2021/11/16 02:09:55;;;;;;;31.65;22.67;;;;;;;5.98;86.36;101780.03;4993420;28;20109;-67
2021/11/16 02:12:22;;;;;;;32.00;21.88;;;;;;;5.97;86.66;101778.34;4993277;28;20082;-67
2021/11/16 02:14:49;;;;;;;32.38;21.95;;;;;;;6.08;85.54;101769.88;4993154;28;20089;-67
2021/11/16 02:17:17;;;;;;;29.80;21.95;;;;;;;6.02;86.20;101770.28;4993018;28;20129;-67
2021/11/16 02:19:45;;;;;;;33.22;22.67;;;;;;;5.98;86.82;101773.06;4992848;28;20109;-67
2021/11/16 02:22:13;;;;;;;33.63;22.20;;;;;;;6.04;86.84;101763.22;4992986;28;20078;-67
2021/11/16 02:24:41;;;;;;;31.48;22.02;;;;;;;5.98;86.57;101760.06;4992892;28;20047;-67
2021/11/16 02:27:08;;;;;;;31.38;22.48;;;;;;;6.10;86.06;101755.84;4993273;28;20086;-66
2021/11/16 02:29:35;;;;;;;35.72;22.42;;;;;;;6.07;86.29;101756.06;4993019;28;20050;-67
2021/11/16 02:32:01;;;;;;;33.20;22.55;;;;;;;5.96;86.71;101755.91;4993166;28;20153;-66
2021/11/16 02:34:28;;;;;;;33.90;23.23;;;;;;;6.00;86.33;101752.19;4993180;28;20470;-67
2021/11/16 02:36:54;;;;;;;34.55;22.52;;;;;;;5.97;86.59;101750.63;4992958;28;20137;-67
2021/11/16 02:39:22;;;;;;;30.98;21.40;;;;;;;6.06;86.92;101750.97;4991885;28;20451;-66
2021/11/16 02:41:51;;;;;;;34.95;24.08;;;;;;;6.06;86.74;101756.97;4992229;28;20046;-66
2021/11/16 02:44:20;;;;;;;34.72;22.83;;;;;;;6.06;86.91;101749.19;4993127;28;20054;-68
2021/11/16 02:46:47;;;;;;;35.58;23.15;;;;;;;6.06;87.13;101750.97;4993057;28;20483;-69
2021/11/16 02:49:14;;;;;;;35.25;23.88;;;;;;;5.97;87.49;101748.00;4993008;28;20137;-69
2021/11/16 02:51:42;;;;;;;32.05;23.00;;;;;;;6.03;88.09;101746.78;4991549;28;20133;-67
2021/11/16 02:54:12;;;;;;;37.90;24.17;;;;;;;6.06;88.07;101745.75;4992882;28;20050;-67
2021/11/16 02:56:40;;;;;;;32.90;22.17;;;;;;;5.97;87.95;101752.38;4992567;28;20077;-67
2021/11/16 02:59:07;;;;;;;36.65;24.25;;;;;;;6.00;87.85;101746.97;4992485;28;20090;-67
2021/11/16 03:01:34;;;;;;;36.65;22.83;;;;;;;6.00;87.56;101749.59;4992549;28;20194;-67
2021/11/16 03:04:01;;;;;;;33.00;22.15;;;;;;;5.86;87.52;101742.63;4992521;28;20112;-67
2021/11/16 03:06:28;;;;;;;32.83;21.88;;;;;;;5.86;86.91;101749.59;4992019;28;20046;-66
2021/11/16 03:08:56;;;;;;;35.20;23.90;;;;;;;5.89;87.35;101750.25;4992108;28;20050;-66
2021/11/16 03:11:23;;;;;;;36.05;23.15;;;;;;;5.90;87.38;101751.09;4992130;28;20180;-67
2021/11/16 03:13:51;;;;;;;33.20;21.98;;;;;;;5.86;88.00;101753.03;4992599;28;20109;-67
2021/11/16 03:16:20;;;;;;;35.15;23.20;;;;;;;5.85;88.01;101747.94;4992445;28;20561;-66
2021/11/16 03:18:48;;;;;;;33.20;23.30;;;;;;;5.87;87.88;101751.25;4991172;28;20046;-67
2021/11/16 03:21:17;;;;;;;36.53;22.92;;;;;;;5.84;88.28;101746.25;4991592;28;20134;-67
2021/11/16 03:23:45;;;;;;;31.83;21.00;;;;;;;5.74;88.18;101746.00;4991896;28;20050;-66
2021/11/16 03:26:13;;;;;;;31.60;20.48;;;;;;;5.73;88.49;101744.34;4992077;28;20050;-67
2021/11/16 03:28:42;;;;;;;31.00;19.75;;;;;;;5.69;88.01;101745.47;4991680;28;20089;-67
2021/11/16 03:31:20;;;;;;;30.10;19.63;;;;;;;5.72;87.93;101734.06;4991731;28;20043;-67
2021/11/16 03:33:48;;;;;;;31.42;20.13;;;;;;;5.73;87.09;101733.13;4991780;28;20113;-68
2021/11/16 03:36:16;;;;;;;30.00;19.52;;;;;;;5.84;87.07;101728.91;4991067;28;20104;-68
2021/11/16 03:38:43;;;;;;;28.02;18.90;;;;;;;5.84;86.99;101726.31;4992653;28;20082;-68
2021/11/16 03:41:15;;;;;;;26.92;18.77;;;;;;;5.77;86.41;101724.22;4992235;28;20106;-68
2021/11/16 03:44:12;;;;;;;31.98;21.02;;;;;;;5.76;86.84;101728.56;4992074;28;20076;-68
2021/11/16 03:50:23;;;;;;;29.60;19.95;;;;;;;5.86;87.14;101723.63;4991249;28;20478;-68
2021/11/16 03:52:53;;;;;;;30.27;20.42;;;;;;;5.90;87.19;101725.13;4992165;28;20146;-69
2021/11/16 03:55:21;;;;;;;30.98;20.05;;;;;;;5.88;86.99;101729.56;4991982;28;20081;-67
2021/11/16 03:57:53;;;;;;;30.95;20.40;;;;;;;5.90;87.56;101730.31;4991598;28;20129;-66
2021/11/16 04:00:23;;;;;;;30.10;20.67;;;;;;;5.92;87.21;101723.25;4992015;28;20458;-66
2021/11/16 04:02:51;;;;;;;31.25;21.73;;;;;;;5.93;87.59;101730.13;4991558;28;20140;-66
2021/11/16 04:05:19;;;;;;;32.72;22.45;;;;;;;5.91;87.13;101729.38;4990215;28;20137;-66
2021/11/16 04:07:46;;;;;;;34.50;22.00;;;;;;;5.93;87.97;101722.31;4990835;28;20050;-67
2021/11/16 04:10:12;;;;;;;35.90;22.75;;;;;;;5.99;88.24;101721.94;4990934;28;20054;-67
2021/11/16 04:12:39;;;;;;;34.10;23.48;;;;;;;6.01;88.69;101714.88;5002403;28;20089;-67
2021/11/16 04:15:08;;;;;;;32.25;21.27;;;;;;;5.98;87.90;101728.06;5010286;28;20046;-69
2021/11/16 04:17:36;;;;;;;34.63;23.73;;;;;;;5.93;88.54;101730.13;5009394;28;20068;-68
2021/11/16 04:20:06;;;;;;;32.40;21.58;;;;;;;5.91;88.17;101729.38;5009848;28;20050;-68
2021/11/16 04:22:32;;;;;;;29.63;21.08;;;;;;;5.86;88.00;101724.47;5008800;28;20056;-67
2021/11/16 04:25:02;;;;;;;32.65;21.83;;;;;;;5.79;88.50;101733.56;5009287;28;20137;-66
2021/11/16 04:27:28;;;;;;;33.80;21.55;;;;;;;5.77;88.66;101727.63;5009212;28;20418;-66
2021/11/16 04:29:55;;;;;;;36.95;21.52;;;;;;;5.84;88.08;101731.50;5009679;28;20392;-66
2021/11/16 04:32:23;;;;;;;35.50;21.92;;;;;;;5.79;88.07;101711.97;5009313;28;20462;-66
2021/11/16 04:34:50;;;;;;;34.30;22.70;;;;;;;5.88;87.97;101722.59;5008583;28;20042;-66
2021/11/16 04:37:18;;;;;;;32.78;22.08;;;;;;;5.85;88.04;101724.56;5009819;28;20084;-66
2021/11/16 04:39:45;;;;;;;32.55;21.88;;;;;;;5.89;88.38;101728.66;5010307;28;20139;-66
2021/11/16 04:42:11;;;;;;;31.15;20.33;;;;;;;5.89;87.75;101711.31;5009129;28;20496;-66
2021/11/16 04:44:38;;;;;;;34.88;21.23;;;;;;;5.90;88.40;101719.94;5010658;28;20085;-66
2021/11/16 04:54:48;;;;;;;33.10;21.23;;;;;;;5.81;88.26;101721.31;4987590;23;20125;-66
2021/11/16 05:02:41;;;;;;;35.67;21.67;;;;;;;5.77;88.83;101717.25;5011850;28;20103;-66
2021/11/16 05:05:12;;;;;;;35.15;21.95;;;;;;;5.75;89.48;101731.25;5013616;28;20049;-66
2021/11/16 05:08:40;;;;;;;34.42;21.05;;;;;;;5.76;88.47;101732.94;5013640;28;20054;-68
2021/11/16 05:11:37;;;;;;;36.88;21.75;;;;;;;5.77;89.13;101734.59;4947392;28;20047;-68
2021/11/16 05:15:02;;;;;;;32.00;20.00;;;;;;;5.75;88.62;101728.66;5007356;28;20200;-68
2021/11/16 05:17:29;;;;;;;34.55;21.10;;;;;;;5.75;88.76;101726.91;4931947;29;20056;-67
2021/11/16 05:19:56;;;;;;;32.83;19.98;;;;;;;5.75;89.25;101724.31;5011716;28;20485;-67
2021/11/16 05:22:23;;;;;;;34.42;21.17;;;;;;;5.73;89.88;101730.53;5012593;28;20149;-67
2021/11/16 05:24:51;;;;;;;35.15;21.55;;;;;;;5.73;89.46;101722.72;5013185;28;20146;-67
2021/11/16 05:27:20;;;;;;;37.83;24.17;;;;;;;5.72;90.12;101736.66;5013106;28;20484;-67
2021/11/16 05:29:46;;;;;;;35.90;21.92;;;;;;;5.72;90.23;101731.47;5012991;28;20112;-67
2021/11/16 05:32:13;;;;;;;35.85;22.40;;;;;;;5.76;90.14;101732.94;5012859;28;20137;-67
2021/11/16 05:34:40;;;;;;;41.63;25.13;;;;;;;5.71;90.02;101727.19;5013172;28;20050;-66
2021/11/16 05:37:07;;;;;;;40.50;23.77;;;;;;;5.68;91.29;101733.41;5012768;28;20133;-66
2021/11/16 05:39:34;;;;;;;44.53;25.58;;;;;;;5.66;90.94;101725.75;5012790;28;20089;-67
2021/11/16 05:42:01;;;;;;;41.33;25.10;;;;;;;5.66;90.15;101723.16;5012472;28;20133;-67
2021/11/16 05:44:32;;;;;;;40.55;25.42;;;;;;;5.73;90.42;101715.78;5012630;28;20148;-66
2021/11/16 05:46:59;;;;;;;42.80;24.52;;;;;;;5.73;89.69;101727.94;5013223;28;20096;-67
2021/11/16 05:49:31;;;;;;;37.45;22.33;;;;;;;5.82;89.92;101727.34;5012613;28;20145;-66
2021/11/16 05:51:58;;;;;;;31.85;21.23;;;;;;;5.82;89.30;101733.38;5012482;28;20061;-67
2021/11/16 05:54:29;;;;;;;34.83;21.45;;;;;;;5.82;89.45;101737.72;5012316;28;20081;-67
2021/11/16 05:56:56;;;;;;;35.28;21.67;;;;;;;5.75;90.20;101742.47;5012964;28;20050;-67
2021/11/16 05:59:26;;;;;;;37.65;22.25;;;;;;;5.80;90.33;101739.59;5012653;28;20536;-67
2021/11/16 06:01:55;;;;;;;39.75;23.60;;;;;;;5.78;90.74;101731.06;5012423;28;20049;-68
2021/11/16 06:04:21;;;;;;;38.47;23.77;;;;;;;5.81;90.99;101731.72;5012407;28;20137;-68
2021/11/16 06:13:52;;;;;;;40.15;23.85;;;;;;;5.76;92.38;101730.34;4970170;28;20070;-68
2021/11/16 06:20:23;;;;;;;40.15;23.50;;;;;;;5.76;91.75;101741.56;4876936;28;20060;-68
2021/11/16 06:22:50;;;;;;;42.70;25.40;;;;;;;5.72;92.71;101742.69;4969017;28;20078;-67
2021/11/16 06:25:17;;;;;;;40.67;24.33;;;;;;;5.70;92.45;101735.91;5008736;28;20049;-68
2021/11/16 06:27:44;;;;;;;42.95;24.75;;;;;;;5.68;92.12;101747.22;5012122;28;20054;-68
2021/11/16 06:30:11;;;;;;;39.20;24.10;;;;;;;5.66;91.90;101746.53;5012070;28;20112;-68
2021/11/16 06:32:38;;;;;;;37.47;23.65;;;;;;;5.63;92.32;101749.31;5011521;28;20090;-68
2021/11/16 06:35:06;;;;;;;41.17;26.02;;;;;;;5.64;91.83;101744.97;5012028;28;20136;-68
2021/11/16 06:37:34;;;;;;;42.38;25.40;;;;;;;5.74;92.01;101746.00;5011808;28;20081;-68
2021/11/16 06:40:01;;;;;;;39.72;24.30;;;;;;;5.68;92.36;101742.03;5012323;28;20141;-68
2021/11/16 06:42:28;;;;;;;39.70;24.60;;;;;;;5.73;91.88;101743.50;5010486;28;20068;-68
2021/11/16 06:44:55;;;;;;;43.50;25.60;;;;;;;5.70;92.55;101748.91;5011597;28;20553;-68
2021/11/16 06:51:20;;;;;;;;;;;;;;;5.64;92.63;101747.56;4961205;28;20108;-68
2021/11/16 06:59:56;;;;;;;40.03;21.02;;;;;;;5.64;90.04;101745.78;4215335;26;20065;-69
2021/11/16 07:02:46;;;;;;;41.13;23.35;;;;;;;5.66;90.66;101758.69;5026626;28;20041;-69
2021/11/16 07:05:19;;;;;;;41.35;25.95;;;;;;;5.68;90.96;101760.22;5031203;28;20054;-68
2021/11/16 07:10:25;;;;;;;46.97;28.13;;;;;;;5.70;92.51;101765.31;4156304;26;20137;-68
2021/11/16 07:12:52;;;;;;;48.45;27.95;;;;;;;5.71;92.46;101766.16;5014128;28;20413;-68
2021/11/16 07:16:10;;;;;;;44.33;26.20;;;;;;;5.73;92.67;101769.47;5012844;28;20049;-68
2021/11/16 07:18:49;;;;;;;49.88;29.90;;;;;;;5.79;92.55;101766.50;4934204;29;20234;-68
2021/11/16 07:21:16;;;;;;;50.90;29.73;;;;;;;5.75;92.98;101767.63;4985458;28;20133;-68
2021/11/16 07:23:42;;;;;;;47.03;28.58;;;;;;;5.77;92.56;101769.19;4990371;28;20085;-68
2021/11/16 07:26:13;;;;;;;45.63;28.40;;;;;;;5.72;92.60;101767.81;4990959;28;20186;-69
2021/11/16 07:28:46;;;;;;;51.97;29.75;;;;;;;5.65;93.23;101772.59;4990571;28;20133;-69
2021/11/16 07:31:16;;;;;;;;;;;;;;;5.67;93.93;101768.94;4991401;28;20153;-69
2021/11/16 07:33:43;;;;;;;49.90;28.42;;;;;;;5.71;94.20;101768.75;4990477;28;19976;-69
2021/11/16 07:36:15;;;;;;;48.65;29.88;;;;;;;5.68;93.68;101773.19;4990738;28;20054;-69
2021/11/16 07:38:43;;;;;;;56.05;29.70;;;;;;;5.75;94.32;101778.00;4990510;28;20046;-70
2021/11/16 07:41:10;;;;;;;51.83;29.50;;;;;;;5.62;94.00;101778.81;4991134;28;20073;-70
2021/11/16 07:43:37;;;;;;;55.92;31.85;;;;;;;5.58;95.29;101777.31;4994525;28;20563;-72
2021/11/16 07:46:03;;;;;;;53.90;30.58;;;;;;;5.72;94.83;101778.19;5003150;28;20056;-70
2021/11/16 07:48:31;;;;;;;53.55;29.08;;;;;;;5.71;94.53;101784.31;5010539;28;20085;-70
2021/11/16 07:51:02;;;;;;;49.95;28.77;;;;;;;5.62;94.67;101776.22;5010866;28;20506;-70
2021/11/16 07:53:33;;;;;;;51.90;29.20;;;;;;;5.74;94.01;101781.53;5012039;28;20395;-70
2021/11/16 07:56:04;;;;;;;53.33;29.80;;;;;;;5.67;94.37;101784.50;5010572;28;20104;-71
2021/11/16 07:58:35;;;;;;;51.95;30.05;;;;;;;5.60;94.35;101785.03;5010706;28;20129;-70
2021/11/16 08:01:08;;;;;;;55.03;30.17;;;;;;;5.56;95.07;101776.59;5012017;28;20062;-70
2021/11/16 08:03:42;;;;;;;52.72;29.48;;;;;;;5.59;94.81;101776.41;5010858;28;20056;-70
2021/11/16 08:06:14;;;;;;;53.33;30.08;;;;;;;5.67;94.96;101768.13;5010734;28;20050;-70
2021/11/16 08:09:05;;;;;;;55.78;30.35;;;;;;;5.69;95.08;101779.22;5010518;28;20050;-71
2021/11/16 08:11:36;;;;;;;52.75;28.80;;;;;;;5.65;94.66;101773.41;5010520;28;20484;-71
2021/11/16 08:14:07;;;;;;;53.53;29.50;;;;;;;5.70;94.46;101775.69;5010746;28;20145;-70
2021/11/16 08:16:37;;;;;;;56.90;28.95;;;;;;;5.67;94.59;101781.13;5010758;28;20050;-71
2021/11/16 08:19:08;;;;;;;54.72;29.98;;;;;;;5.64;95.27;101787.34;5010807;28;20141;-70
2021/11/16 08:21:36;;;;;;;52.90;29.17;;;;;;;5.67;95.23;101779.31;5012227;28;20080;-72
2021/11/16 08:24:07;;;;;;;53.70;29.55;;;;;;;5.75;95.06;101775.41;5015584;28;20139;-71
2021/11/16 08:26:37;;;;;;;49.65;29.52;;;;;;;5.77;95.22;101783.94;5016315;28;20092;-72
2021/11/16 08:29:06;;;;;;;52.35;28.85;;;;;;;5.73;95.43;101770.31;5015113;28;20081;-71
2021/11/16 08:31:37;;;;;;;51.15;27.67;;;;;;;5.70;94.34;101769.66;5014382;28;20064;-70
2021/11/16 08:34:05;;;;;;;48.13;25.88;;;;;;;5.80;94.92;101771.59;5014525;28;20061;-70
2021/11/16 08:36:44;;;;;;;50.88;27.33;;;;;;;5.75;94.74;101768.47;5014095;28;20054;-70
2021/11/16 08:39:12;;;;;;;52.50;27.67;;;;;;;5.76;94.84;101779.69;5014404;28;20069;-70
2021/11/16 08:41:40;;;;;;;46.55;27.25;;;;;;;5.83;94.11;101781.78;5014029;28;20081;-70
2021/11/16 08:44:13;;;;;;;43.03;24.75;;;;;;;5.72;94.14;101778.19;5014065;28;20140;-70
2021/11/16 08:46:42;;;;;;;48.03;25.48;;;;;;;5.75;94.88;101772.81;5014035;28;20469;-70
2021/11/16 08:49:20;;;;;;;45.20;25.30;;;;;;;5.88;94.20;101774.53;5014035;28;20232;-70
2021/11/16 08:51:47;;;;;;;43.03;24.35;;;;;;;5.84;94.77;101769.63;5015118;28;20129;-70
2021/11/16 08:54:23;;;;;;;44.00;24.80;;;;;;;5.87;94.49;101767.69;5014721;28;20104;-70
2021/11/16 08:56:50;;;;;;;43.65;25.65;;;;;;;5.85;94.58;101766.13;5013973;28;20101;-70
2021/11/16 08:59:20;;;;;;;47.80;25.65;;;;;;;5.88;94.66;101771.13;5013721;28;20045;-70
2021/11/16 09:01:54;;;;;;;45.58;25.50;;;;;;;5.88;94.88;101752.94;5014600;28;20056;-69
2021/11/16 09:04:26;;;;;;;45.72;26.67;;;;;;;5.94;94.41;101762.97;5014685;28;20081;-70
2021/11/16 09:06:53;;;;;;;53.77;27.57;;;;;;;6.04;94.72;101758.00;5015044;28;20541;-69
2021/11/16 09:09:22;;;;;;;42.83;24.30;;;;;;;5.91;94.40;101758.78;5014002;28;20140;-70
2021/11/16 09:12:01;;;;;;;40.05;23.15;;;;;;;5.76;94.21;101758.91;5014532;28;20057;-70
2021/11/16 09:14:29;;;;;;;41.85;23.52;;;;;;;5.60;95.18;101767.69;5014577;28;20092;-69
2021/11/16 09:16:56;;;;;;;45.90;23.35;;;;;;;5.67;95.33;101755.16;5014359;28;20137;-69
2021/11/16 09:19:25;;;;;;;46.20;23.20;;;;;;;5.53;95.21;101753.41;5013914;28;20098;-69
2021/11/16 09:21:55;;;;;;;42.17;23.90;;;;;;;5.65;96.29;101757.00;5013993;28;20061;-69
2021/11/16 09:24:30;;;;;;;40.35;23.00;;;;;;;5.76;95.38;101753.72;5014144;28;20442;-70
2021/11/16 09:27:09;;;;;;;43.40;24.38;;;;;;;5.73;95.01;101753.91;5014647;28;20081;-70
2021/11/16 09:29:39;;;;;;;39.63;22.75;;;;;;;5.80;95.96;101757.78;5013674;28;20054;-71
2021/11/16 09:32:07;;;;;;;43.15;23.15;;;;;;;5.74;94.99;101746.00;5013258;28;20135;-70
2021/11/16 09:34:36;;;;;;;47.90;25.38;;;;;;;5.65;94.96;101750.06;5014149;28;20480;-70
2021/11/16 09:37:06;;;;;;;39.13;22.20;;;;;;;5.79;95.23;101753.50;5013959;28;20046;-70
2021/11/16 09:39:42;;;;;;;41.53;23.35;;;;;;;5.71;95.80;101750.56;5013744;28;20108;-70
2021/11/16 09:42:12;;;;;;;38.72;21.63;;;;;;;5.75;94.66;101749.44;5015522;28;20429;-71
2021/11/16 09:44:43;;;;;;;38.72;22.17;;;;;;;5.63;94.70;101744.13;5016836;28;20065;-70
2021/11/16 09:47:15;;;;;;;39.17;22.63;;;;;;;5.61;95.40;101735.59;5017044;28;20061;-70
2021/11/16 09:49:44;;;;;;;39.38;22.05;;;;;;;5.87;94.78;101740.88;5015980;28;20080;-71
2021/11/16 09:52:13;;;;;;;38.10;21.70;;;;;;;5.99;95.18;101740.13;5014253;28;20108;-71
2021/11/16 09:54:51;;;;;;;37.75;20.58;;;;;;;6.08;94.42;101736.09;5012811;28;20096;-71
2021/11/16 09:57:20;;;;;;;35.83;19.90;;;;;;;6.17;93.96;101725.91;5012574;28;20088;-70
2021/11/16 09:59:49;;;;;;;36.47;22.50;;;;;;;6.03;93.57;101726.00;5012879;28;20053;-70
2021/11/16 10:02:24;;;;;;;28.38;17.77;;;;;;;6.13;93.86;101723.63;5012920;28;20418;-70
2021/11/16 10:04:52;;;;;;;29.80;18.58;;;;;;;6.17;93.51;101725.06;5014842;28;20109;-70
2021/11/16 10:07:22;;;;;;;33.72;18.92;;;;;;;6.20;94.15;101720.50;5015637;28;20053;-71
2021/11/16 10:09:51;;;;;;;29.63;18.17;;;;;;;6.27;93.79;101718.34;5016131;28;20054;-71
2021/11/16 10:12:23;;;;;;;26.65;17.42;;;;;;;6.20;93.79;101712.72;5013641;28;20133;-71
2021/11/16 10:14:51;;;;;;;26.05;15.93;;;;;;;6.26;93.82;101711.47;5012136;28;20459;-71
2021/11/16 10:17:18;;;;;;;23.05;14.90;;;;;;;6.32;94.26;101721.47;5016774;28;20061;-71
2021/11/16 10:19:46;;;;;;;24.40;14.98;;;;;;;6.26;93.66;101714.91;5017303;28;20046;-71
2021/11/16 10:22:16;;;;;;;21.73;13.63;;;;;;;6.17;93.39;101712.06;5016716;28;20050;-71
2021/11/16 10:24:45;;;;;;;21.85;14.88;;;;;;;6.36;93.50;101711.69;5018918;28;20084;-71
2021/11/16 10:27:36;;;;;;;25.60;16.33;;;;;;;6.26;93.46;101707.13;5017804;28;20421;-71
2021/11/16 10:30:11;;;;;;;23.88;15.02;;;;;;;6.24;93.28;101703.78;5014466;28;20054;-71
2021/11/16 10:32:40;;;;;;;25.90;15.63;;;;;;;6.18;93.07;101698.97;5014130;28;20049;-71
2021/11/16 10:35:11;;;;;;;24.80;15.18;;;;;;;6.11;93.29;101708.16;5015554;28;20057;-71
2021/11/16 10:37:53;;;;;;;20.35;13.10;;;;;;;6.12;93.30;101703.78;5013860;28;20042;-71
2021/11/16 10:40:23;;;;;;;23.52;14.18;;;;;;;6.18;93.69;101698.97;5010938;28;20149;-71
2021/11/16 10:42:58;;;;;;;24.33;14.93;;;;;;;6.24;93.52;101695.16;5017818;28;20049;-71
2021/11/16 10:45:29;;;;;;;22.50;14.45;;;;;;;6.29;94.29;101699.09;5015729;28;20052;-71
2021/11/16 10:47:59;;;;;;;26.90;14.52;;;;;;;6.43;94.22;101699.97;5012862;28;20038;-71
2021/11/16 10:50:30;;;;;;;18.98;12.80;;;;;;;6.51;93.88;101692.47;5014708;28;20056;-71
2021/11/16 10:53:08;;;;;;;18.75;12.30;;;;;;;6.54;93.53;101689.69;5011098;28;20081;-70
2021/11/16 10:55:42;;;;;;;17.75;11.68;;;;;;;6.55;93.29;101686.13;5016359;28;20069;-71
2021/11/16 10:58:13;;;;;;;20.08;11.45;;;;;;;6.61;93.08;101677.94;5015269;28;20049;-71
2021/11/16 11:00:46;;;;;;;18.20;12.25;;;;;;;6.58;93.42;101671.16;5012588;28;20501;-71
2021/11/16 11:03:29;;;;;;;20.13;12.80;;;;;;;6.63;93.12;101679.44;5013778;28;20137;-72
2021/11/16 11:05:59;;;;;;;16.23;11.30;;;;;;;6.61;92.76;101680.53;5013758;28;20049;-71
2021/11/16 11:08:44;;;;;;;18.08;12.20;;;;;;;6.57;92.30;101666.91;5015343;28;20045;-70
2021/11/16 11:11:23;;;;;;;19.20;12.00;;;;;;;6.55;92.32;101660.97;5014979;28;20561;-71
2021/11/16 11:13:57;;;;;;;16.45;11.30;;;;;;;6.48;92.29;101666.69;5012083;28;20057;-70
2021/11/16 11:16:25;;;;;;;18.92;11.68;;;;;;;6.66;92.04;101665.41;5004602;28;20054;-71
2021/11/16 11:18:53;;;;;;;18.15;10.93;;;;;;;6.61;91.92;101665.75;5004561;28;20074;-71
2021/11/16 11:21:52;;;;;;;17.08;10.73;;;;;;;6.52;91.70;101668.16;5008954;28;20433;-70
2021/11/16 11:24:25;;;;;;;21.98;11.82;;;;;;;6.60;92.01;101668.47;5010876;28;20052;-71
2021/11/16 11:26:58;;;;;;;18.85;11.45;;;;;;;6.60;91.71;101669.28;5012184;28;20054;-71
2021/11/16 11:29:37;;;;;;;19.92;11.73;;;;;;;6.59;91.85;101659.00;5011465;28;20052;-72
2021/11/16 11:32:12;;;;;;;16.02;10.85;;;;;;;6.61;91.89;101660.56;5004119;28;20521;-71
2021/11/16 11:34:43;;;;;;;14.80;10.35;;;;;;;6.63;92.29;101661.25;4998239;28;20504;-71
2021/11/16 11:37:14;;;;;;;14.88;9.80;;;;;;;6.54;92.04;101658.47;5007354;28;20042;-71
2021/11/16 11:39:43;;;;;;;29.17;11.35;;;;;;;6.61;92.11;101652.75;5011566;28;20046;-71
2021/11/16 11:42:19;;;;;;;22.17;10.88;;;;;;;6.70;91.42;101648.66;5010873;28;20054;-71
2021/11/16 11:45:06;;;;;;;13.57;10.27;;;;;;;6.72;91.94;101646.78;5011952;28;20409;-71
2021/11/16 11:47:35;;;;;;;13.30;9.40;;;;;;;6.64;91.45;101634.31;5005378;28;20107;-71
2021/11/16 11:50:02;;;;;;;17.10;9.50;;;;;;;6.72;90.79;101641.56;4994190;28;20077;-68
2021/11/16 11:52:29;;;;;;;32.10;10.13;;;;;;;6.62;90.77;101637.94;4996271;28;20133;-71
2021/11/16 11:54:56;;;;;;;13.20;9.95;;;;;;;6.62;90.42;101641.38;4997601;28;20553;-71
2021/11/16 11:57:23;;;;;;;14.25;9.95;;;;;;;6.66;90.70;101636.81;5010626;28;20433;-70
2021/11/16 11:59:50;;;;;;;13.75;9.85;;;;;;;6.73;91.26;101632.84;5006646;28;20133;-69
2021/11/16 12:02:18;;;;;;;14.90;9.45;;;;;;;6.64;91.34;101629.09;5004738;28;20498;-70
2021/11/16 12:04:46;;;;;;;16.35;9.63;;;;;;;6.70;91.30;101629.63;5008283;28;20159;-70
2021/11/16 12:07:14;;;;;;;13.30;9.93;;;;;;;6.69;90.99;101631.38;5009620;28;20402;-69
2021/11/16 12:09:43;;;;;;;13.18;9.23;;;;;;;6.64;90.85;101625.66;5004881;28;20641;-70
2021/11/16 12:12:10;;;;;;;24.13;13.40;;;;;;;6.75;90.62;101627.53;5008816;28;20129;-70
2021/11/16 12:14:45;;;;;;;16.40;10.82;;;;;;;6.66;90.59;101614.22;5006280;28;20403;-70
2021/11/16 12:17:15;;;;;;;18.23;10.43;;;;;;;6.52;90.85;101623.94;5012905;28;20050;-70
2021/11/16 12:19:52;;;;;;;16.55;11.25;;;;;;;6.60;90.78;101621.66;5012582;28;20200;-69
2021/11/16 12:22:24;;;;;;;16.17;10.70;;;;;;;6.65;91.87;101625.56;5004764;28;20128;-69
2021/11/16 12:24:58;;;;;;;17.98;9.77;;;;;;;6.53;90.80;101618.63;4994760;28;20077;-69
2021/11/16 12:27:34;;;;;;;15.15;10.23;;;;;;;6.69;90.58;101620.16;5004394;28;20056;-69
2021/11/16 12:30:02;;;;;;;14.50;9.95;;;;;;;6.63;90.66;101617.03;5010219;28;20046;-70
2021/11/16 12:32:31;;;;;;;16.35;10.35;;;;;;;6.60;90.91;101619.88;5012372;28;20049;-71
2021/11/16 12:35:03;;;;;;;13.05;9.60;;;;;;;6.62;90.89;101611.94;5012286;28;20502;-71
2021/11/16 12:37:39;;;;;;;19.95;10.48;;;;;;;6.54;89.90;101616.88;5012337;28;20045;-71
2021/11/16 12:40:10;;;;;;;18.13;11.18;;;;;;;6.60;89.42;101613.84;5011951;28;20056;-70
2021/11/16 12:42:38;;;;;;;42.55;12.40;;;;;;;6.51;90.01;101606.69;5011650;28;20049;-70